Onde está Cavaleiros, Santarem en Portugal?

Cavaleiros está situado na região Santarem em Portugal!

Buscar o nome de uma cidade:

Cavalcanti, Cavalero Corner, Cavagnano, Cavaia, Cavanayén

Aqui você vai encontrar a localização de Cavaleiros em um mapa.
Para ver como ele atualmente parece, abaixo estão algumas fotos da região, com webcams online.
Você também pode encontrar a distância para as principais cidades da região e de cidades do resto do Portugal.

5 lugares nomeadas Cavaleiros na Portugal.

Todos os lugares do mundo chamado .

new

Onde está Cavaleiros no mapa?


Webcams perto Cavaleiros

Vasco Carão > South: Garrocheira, Benavente - Airport.


Vasco Carão > South: Garrocheira, Benavente - Airport - Dia
Actual
Vasco Carão > South: Garrocheira, Benavente - Airport - Actual

Benavente > North-East: AIrport, METAR: BENAV 180005Z 36004KT 17/14 Q1015.


Benavente > North-East: AIrport, METAR: BENAV 180005Z 36004KT 17/14 Q1015 - Dia
Actual
Benavente > North-East: AIrport, METAR: BENAV 180005Z 36004KT 17/14 Q1015 - Actual

Lisbon > South: Rua Vasco da Gama.


Lisbon > South: Rua Vasco da Gama - Dia
Actual
Lisbon > South: Rua Vasco da Gama - Actual

Webcams provided by webcams.travel

Distâncias

Onde está Cavaleiros em relação a outros lugares?

Top 10 cidades em Santarem e distância de Cavaleiros.

Cidade#Populaçãokmmilhas
Santarém1293853723
Entroncamento2198876339
Tomar3191687949
Torres Novas4145266339
Samora Correia5141542616
Abrantes6136466943
Ourém7127298050
Rio Maior8120645635
Fátima9117987949
Almeirim10115563421

Top 10 cidades em Portugal e distância de Cavaleiros.

Cidade # Populaçãokmmilhas
Lisbon15177985333
Porto2249630249155
Amadora31788566037
Braga4121393295183
Setúbal51171095031
Coimbra610658014590
Queluz71033986138
Funchal8980411025637
Vila Nova de Gaia970810248154
Loures10662305132